Huntersville, North Carolina
Current Conditions -  °F | °C
As of 8:54 AM on Saturday 22 Nov 2014 (Local Time) from KJQF Reporting Station
Clear Clear  
Wind Chill: 34°   Ceiling: Unl
Heat Index: 34°   Visibility: 10mi
Dew Point: 25°   Wind: 0mph
Humidity: 70%   Direction: NA
Pressure: 30.6"   Gusts: NA
Location:  35.42°N, 80.85°W
Report Text: KJQF 221354Z 00000KT 10SM CLR 01/M04 A3060
Loading
Personal Weather Stations






























Interactive Weather Map New forecast layout! Learn more

10-Day Weather Forecast

Advertisements
Track Severe Weather on mobile